Home > Products > Valid Products > MTR

000
SAUS43 KDLH 310557
MTRGNA
METAR KGNA 310556Z AUTO VRB03KT M01/M07 A3032 RMK AO1 SLP277 60005
T10111072 10017 21011 400891011 51045





000
SAUS43 KDLH 310457
MTRGNA
METAR KGNA 310456Z AUTO 06008G15KT 020V100 M01/M07 A3029 RMK AO1 PK
WND 02026/0404 SLP267 T10061067





000
SAUS43 KDLH 310357
MTRGNA
METAR KGNA 310356Z AUTO 36011G24KT 320V040 M01/M06 A3024 RMK AO1 PK
WND 35031/0327 SLP249 T10061061





000
SAUS43 KDLH 310357
MTRGNA
METAR KGNA 310356Z AUTO 36011G24KT 320V040 M01/M06 A3024 RMK AO1 PK
WND 35031/0327 SLP249 T10061061





000
SAUS43 KDLH 310257
MTRGNA
METAR KGNA 310256Z AUTO 35017G27KT 00/M04 A3019 RMK AO1 PK WND
35027/0255 SLP232 60005 T00001044 51035





000
SAUS43 KDLH 310157
MTRGNA
METAR KGNA 310156Z AUTO 35010G25KT 00/M04 A3016 RMK AO1 PK WND
36029/0107 SLP221 P0002 T00001039





000
SAUS43 KDLH 310058
MTRGNA
METAR KGNA 310056Z AUTO 36008G19KT 330V040 00/M02 A3014 RMK AO1 PK
WND 35027/0037 SLP217 P0003 T00001017





000
SAUS43 KDLH 302357
MTRGNA
METAR KGNA 302356Z AUTO 35008KT 02/M01 A3008 RMK AO1 SLP195 P0001
60002 T00171006 10089 20017 53020





000
SAUS43 KDLH 302257
MTRGNA
METAR KGNA 302256Z AUTO 33007KT 280V350 03/M02 A3005 RMK AO1 SLP184
T00331022





000
SAUS43 KDLH 302157
MTRGNA
METAR KGNA 302156Z AUTO 34009G21KT 04/M02 A3003 RMK AO1 SLP178
T00441017





000
SAUS43 KDLH 302157
MTRGNA
METAR KGNA 302156Z AUTO 34009G21KT 04/M02 A3003 RMK AO1 SLP178
T00441017





000
SAUS43 KDLH 302057
MTRGNA
METAR KGNA 302056Z AUTO 34010G18KT 310V020 05/00 A3002 RMK AO1 PK
WND 35026/2039 SLP173 60001 T00500000 55003





000
SAUS43 KDLH 301957
MTRGNA
METAR KGNA 301956Z AUTO 34006G20KT 06/02 A3002 RMK AO1 SLP171 P0001
T00560017





000
SAUS43 KDLH 301857
MTRGNA
METAR KGNA 301856Z AUTO VRB04KT 08/01 A3002 RMK AO1 SLP169 T00830011





000
SAUS43 KDLH 301757
MTRGNA
METAR KGNA 301756Z AUTO VRB04KT 08/01 A3003 RMK AO1 SLP175 T00780011
10078 20039 58001





000
SAUS43 KDLH 301657
MTRGNA
METAR KGNA 301656Z AUTO VRB03KT 07/01 A3004 RMK AO1 SLP178 T00720011





000
SAUS43 KDLH 301657
MTRGNA
METAR KGNA 301656Z AUTO VRB03KT 07/01 A3004 RMK AO1 SLP178 T00720011





000
SAUS43 KDLH 301558
MTRGNA
METAR KGNA 301556Z AUTO VRB03KT 06/01 A3004 RMK AO1 SLP178 T00560011





000
SAUS43 KDLH 301459
MTRGNA
METAR KGNA 301456Z AUTO VRB04KT 06/01 A3003 RMK AO1 SLP177 T00560011
53003





000
SAUS43 KDLH 301357
MTRGNA
METAR KGNA 301356Z AUTO 00000KT 05/02 A3003 RMK AO1 SLP176 T00500022





000
SAUS43 KDLH 301257
MTRGNA
METAR KGNA 301256Z AUTO 00000KT 04/02 A3002 RMK AO1 SLP173 T00390017





000
SAUS43 KDLH 301157
MTRGNA
METAR KGNA 301156Z AUTO 00000KT 05/02 A3002 RMK AO1 SLP173 T00500017
10056 20044 58000





000
SAUS43 KDLH 301057
MTRGNA
METAR KGNA 301056Z AUTO 00000KT 05/02 A3003 RMK AO1 SLP174 T00500017





000
SAUS43 KDLH 301057
MTRGNA
METAR KGNA 301056Z AUTO 00000KT 05/02 A3003 RMK AO1 SLP174 T00500017





000
SAUS43 KDLH 300957
MTRGNA
METAR KGNA 300956Z AUTO 00000KT 06/01 A3002 RMK AO1 SLP173 T00560011





000
SAUS43 KDLH 300857
MTRGNA
METAR KGNA 300856Z AUTO 00000KT 05/01 A3002 RMK AO1 SLP173 T00500011
56005





000
SAUS43 KDLH 300757
MTRGNA
METAR KGNA 300756Z AUTO 00000KT 05/02 A3003 RMK AO1 SLP174 T00500017





000
SAUS43 KDLH 300657
MTRGNA
METAR KGNA 300656Z AUTO 00000KT 05/02 A3003 RMK AO1 SLP176 T00500017





000
SAUS43 KDLH 300557
MTRGNA
METAR KGNA 300556Z AUTO 32003KT 04/02 A3004 RMK AO1 SLP178 T00440017
10061 20044 400780028 58004





000
SAUS43 KDLH 300457
MTRGNA
METAR KGNA 300456Z AUTO 00000KT 05/02 A3004 RMK AO1 SLP180 T00500017





000
SAUS43 KDLH 300457
MTRGNA
METAR KGNA 300456Z AUTO 00000KT 05/02 A3004 RMK AO1 SLP180 T00500017





000
SAUS43 KDLH 300357
MTRGNA
METAR KGNA 300356Z AUTO 00000KT 05/02 A3005 RMK AO1 SLP184 T00500022





000
SAUS43 KDLH 300257
MTRGNA
METAR KGNA 300256Z AUTO 00000KT 04/02 A3005 RMK AO1 SLP183 T00440017
53000





000
SAUS43 KDLH 300157
MTRGNA
METAR KGNA 300156Z AUTO 00000KT 05/02 A3004 RMK AO1 SLP181 T00500017





000
SAUS43 KDLH 300057
MTRGNA
METAR KGNA 300056Z AUTO 00000KT 06/02 A3005 RMK AO1 SLP184 T00560017





000
SAUS43 KDLH 292357
MTRGNA
METAR KGNA 292356Z AUTO 27004KT 06/01 A3005 RMK AO1 SLP183 T00610011
10078 20056 53004





000
SAUS43 KDLH 292257
MTRGNA
METAR KGNA 292256Z AUTO 27003KT 06/01 A3004 RMK AO1 SLP179 T00610011





000
SAUS43 KDLH 292157
MTRGNA
METAR KGNA 292156Z AUTO VRB04KT 07/01 A3003 RMK AO1 SLP176 T00670011





000
SAUS43 KDLH 292057
MTRGNA
METAR KGNA 292056Z AUTO VRB03KT 07/01 A3004 RMK AO1 SLP178 T00720011
58000





000
SAUS43 KDLH 291957
MTRGNA
METAR KGNA 291956Z AUTO VRB05KT 07/01 A3004 RMK AO1 SLP178 T00720006





000
SAUS43 KDLH 291857
MTRGNA
METAR KGNA 291856Z AUTO 23006KT 07/00 A3004 RMK AO1 SLP178 T00670000





000
SAUS43 KDLH 291757
MTRGNA
METAR KGNA 291756Z AUTO 00000KT 07/00 A3004 RMK AO1 SLP178 T00670000
10072 20028 51010





000
SAUS43 KDLH 291657
MTRGNA
METAR KGNA 291656Z AUTO 00000KT 06/M01 A3004 RMK AO1 SLP178
T00611006





000
SAUS43 KDLH 291557
MTRGNA
METAR KGNA 291556Z AUTO VRB03KT 06/M01 A3003 RMK AO1 SLP176
T00561011





000
SAUS43 KDLH 291458
MTRGNA
METAR KGNA 291456Z AUTO 19004KT 05/M01 A3001 RMK AO1 SLP169
T00501006 51021





000
SAUS43 KDLH 291357
MTRGNA
METAR KGNA 291356Z AUTO VRB03KT 04/M01 A2999 RMK AO1 SLP164
T00441006





000
SAUS43 KDLH 291257
MTRGNA
METAR KGNA 291256Z AUTO 32006KT 03/M01 A2997 RMK AO1 SLP155
T00331006





000
SAUS43 KDLH 291157
MTRGNA
METAR KGNA 291156Z AUTO 00000KT 03/M01 A2995 RMK AO1 SLP148 70001
T00331011 10044 20033 53028





000
SAUS43 KDLH 291057
MTRGNA
METAR KGNA 291056Z AUTO 00000KT 04/M01 A2992 RMK AO1 SLP137
T00391006





000
SAUS43 KDLH 290957
MTRGNA
METAR KGNA 290956Z AUTO VRB03KT 03/M01 A2989 RMK AO1 SLP127
T00331006





000
SAUS43 KDLH 290857
MTRGNA
METAR KGNA 290856Z AUTO 00000KT 04/M01 A2986 RMK AO1 SLP118
T00391006 52035





000
SAUS43 KDLH 290757
MTRGNA
METAR KGNA 290756Z AUTO VRB03KT 04/00 A2983 RMK AO1 SLP108 T00390000





000
SAUS43 KDLH 290657
MTRGNA
METAR KGNA 290656Z AUTO VRB04KT 04/00 A2979 RMK AO1 SLP093 T00390000





000
SAUS43 KDLH 290557
MTRGNA
METAR KGNA 290556Z AUTO VRB03KT 04/00 A2976 RMK AO1 SLP083 T00390000
10061 20039 400890039 51026





000
SAUS43 KDLH 290457
MTRGNA
METAR KGNA 290456Z AUTO 04/00 A2973 RMK AO1 SLP074 T00440000





000
SAUS43 KDLH 290357
MTRGNA
METAR KGNA 290356Z AUTO VRB03KT 04/00 A2971 RMK AO1 SLP066 T00440000





000
SAUS43 KDLH 290257
MTRGNA
METAR KGNA 290256Z AUTO 00000KT 05/02 A2968 RMK AO1 SLP056 T00500017
53020





000
SAUS43 KDLH 290157
MTRGNA
METAR KGNA 290156Z AUTO 26008KT 05/02 A2964 RMK AO1 SLP044 T00500017





000
SAUS43 KDLH 290057
MTRGNA
METAR KGNA 290056Z AUTO 25009G15KT 06/02 A2963 RMK AO1 SLP040
T00560017





000
SAUS43 KDLH 282357
MTRGNA
METAR KGNA 282356Z AUTO 26006KT 06/02 A2962 RMK AO1 SLP035 T00610017
10089 20061 53020





000
SAUS43 KDLH 282257
MTRGNA
METAR KGNA 282256Z AUTO VRB06KT 07/02 A2960 RMK AO1 SLP028 T00670017





000
SAUS43 KDLH 282157
MTRGNA
METAR KGNA 282156Z AUTO 26008KT 07/03 A2958 RMK AO1 SLP020 T00720033





000
SAUS43 KDLH 282057
MTRGNA
METAR KGNA 282056Z AUTO 26008KT 08/03 A2956 RMK AO1 SLP013 T00780033
53007





000
SAUS43 KDLH 281957
MTRGNA
METAR KGNA 281956Z AUTO 26008KT 08/04 A2954 RMK AO1 SLP008 T00830039





000
SAUS43 KDLH 281857
MTRGNA
METAR KGNA 281856Z AUTO 25007G17KT 08/04 A2954 RMK AO1 SLP005
T00780044





000
SAUS43 KDLH 281758
MTRGNA
METAR KGNA 281756Z AUTO 27008G17KT 08/04 A2954 RMK AO1 SLP006 60001
T00830039 10083 20067 52004





000
SAUS43 KDLH 281657
MTRGNA
METAR KGNA 281656Z AUTO 25008KT 08/06 A2953 RMK AO1 SLP005 P0001
T00780056





000
SAUS43 KDLH 281657
MTRGNA
METAR KGNA 281656Z AUTO 25008KT 08/06 A2953 RMK AO1 SLP005 P0001
T00780056





000
SAUS43 KDLH 281557
MTRGNA
METAR KGNA 281556Z AUTO 27004KT 07/06 A2953 RMK AO1 SLP005 T00720056





000
SAUS43 KDLH 281557
MTRGNA
METAR KGNA 281556Z AUTO 27004KT 07/06 A2953 RMK AO1 SLP005 T00720056





000
SAUS43 KDLH 281457
MTRGNA
METAR KGNA 281456Z AUTO 26008KT 07/06 A2953 RMK AO1 SLP003 T00670061
56004





000
SAUS43 KDLH 281357
MTRGNA
METAR KGNA 281356Z AUTO 25006KT 07/06 A2953 RMK AO1 SLP004 T00670056





000
SAUS43 KDLH 281257
MTRGNA
METAR KGNA 281256Z AUTO 26003KT 07/06 A2954 RMK AO1 SLP006 T00670056





000
SAUS43 KDLH 281157
MTRGNA
METAR KGNA 281156Z AUTO 24005KT 07/06 A2954 RMK AO1 SLP008 60001
70001 T00670056 10072 20067 57009





000
SAUS43 KDLH 281057
MTRGNA
METAR KGNA 281056Z AUTO 25004KT 07/06 A2955 RMK AO1 SLP010 P0001
T00670056





000
SAUS43 KDLH 280957
MTRGNA
METAR KGNA 280956Z AUTO 25004KT 07/06 A2956 RMK AO1 SLP015 T00670056





000
SAUS43 KDLH 280957
MTRGNA
METAR KGNA 280956Z AUTO 25004KT 07/06 A2956 RMK AO1 SLP015 T00670056





000
SAUS43 KDLH 280857
MTRGNA
METAR KGNA 280856Z AUTO 00000KT 07/05 A2957 RMK AO1 SLP016 T00720050
58002





000
SAUS43 KDLH 280757
MTRGNA
METAR KGNA 280756Z AUTO 23003KT 07/05 A2959 RMK AO1 SLP022 T00720050





000
SAUS43 KDLH 280657
MTRGNA
METAR KGNA 280656Z AUTO 00000KT 07/04 A2958 RMK AO1 SLP021 T00720044





    US Dept of Commerce
    National Oceanic and Atmospheric Administration
    National Weather Service
    1325 East West Highway
    Silver Spring, MD 20910
    Page Author: NWS Internet Services Team
Disclaimer
Information Quality
Credits
Glossary
Privacy Policy
Freedom of Information Act (FOIA)
About Us
Career Opportunities